createdAt,value
2023-02-05T00:00:57.659Z,-1.63
2023-02-05T00:03:25.489Z,-1.63
2023-02-05T00:05:38.149Z,-1.62
2023-02-05T00:07:50.786Z,-1.63
2023-02-05T00:10:04.142Z,-1.66
2023-02-05T00:12:16.704Z,-1.69
2023-02-05T00:14:29.258Z,-1.72
2023-02-05T00:16:41.892Z,-1.73
2023-02-05T00:18:54.835Z,-1.78
2023-02-05T00:21:08.335Z,-1.81
2023-02-05T00:23:20.862Z,-1.84
2023-02-05T00:25:34.120Z,-1.91
2023-02-05T00:27:46.773Z,-1.96
2023-02-05T00:29:59.389Z,-1.97
2023-02-05T00:32:12.141Z,-2.02
2023-02-05T00:34:24.751Z,-2.05
2023-02-05T00:36:37.289Z,-2.06
2023-02-05T00:38:50.526Z,-2.08
2023-02-05T00:41:03.487Z,-2.08
2023-02-05T00:43:16.032Z,-2.11
2023-02-05T00:45:35.115Z,-2.13
2023-02-05T00:47:48.184Z,-2.14
2023-02-05T00:50:00.872Z,-2.15
2023-02-05T00:52:13.622Z,-2.14
2023-02-05T00:54:26.275Z,-2.14
2023-02-05T00:56:38.807Z,-2.16
2023-02-05T00:58:51.336Z,-2.18
2023-02-05T01:01:04.716Z,-2.19
2023-02-05T01:03:18.439Z,-2.19
2023-02-05T01:05:31.545Z,-2.19
2023-02-05T01:07:44.295Z,-2.19
2023-02-05T01:09:56.924Z,-2.16
2023-02-05T01:12:09.497Z,-2.15
2023-02-05T01:14:22.068Z,-2.16
2023-02-05T01:16:34.648Z,-2.17
2023-02-05T01:18:47.257Z,-2.17
2023-02-05T01:20:59.871Z,-2.15
2023-02-05T01:23:12.452Z,-2.14
2023-02-05T01:25:25.099Z,-2.13
2023-02-05T01:27:37.734Z,-2.12
2023-02-05T01:29:51.220Z,-2.13
2023-02-05T01:32:03.981Z,-2.13
2023-02-05T01:34:16.627Z,-2.12
2023-02-05T01:36:29.178Z,-2.12
2023-02-05T01:38:41.803Z,-2.13
2023-02-05T01:40:54.339Z,-2.14
2023-02-05T01:43:13.458Z,-2.18
2023-02-05T01:45:26.123Z,-2.20
2023-02-05T01:47:38.647Z,-2.20
2023-02-05T01:49:51.278Z,-2.22
2023-02-05T01:52:09.705Z,-2.25
2023-02-05T01:54:26.601Z,-2.27
2023-02-05T01:56:52.421Z,-2.28
2023-02-05T01:59:10.087Z,-2.32
2023-02-05T02:01:24.252Z,-2.33
2023-02-05T02:03:37.803Z,-2.32
2023-02-05T02:05:50.361Z,-2.31
2023-02-05T02:08:03.396Z,-2.29
2023-02-05T02:10:17.798Z,-2.24
2023-02-05T02:12:35.059Z,-2.21
2023-02-05T02:14:51.939Z,-2.20
2023-02-05T02:17:07.146Z,-2.18
2023-02-05T02:20:06.375Z,-2.16
2023-02-05T02:22:53.411Z,-2.20
2023-02-05T02:25:40.200Z,-2.25
2023-02-05T02:28:00.159Z,-2.31
2023-02-05T02:30:21.801Z,-2.29
2023-02-05T02:32:41.221Z,-2.24
2023-02-05T02:35:05.177Z,-2.25
2023-02-05T02:37:24.018Z,-2.29
2023-02-05T02:39:59.843Z,-2.30
2023-02-05T02:42:16.651Z,-2.32
2023-02-05T02:44:55.300Z,-2.29
2023-02-05T02:47:35.079Z,-2.28
2023-02-05T02:49:54.292Z,-2.27
2023-02-05T02:52:09.057Z,-2.23
2023-02-05T02:54:22.604Z,-2.17
2023-02-05T02:56:39.295Z,-2.15
2023-02-05T02:58:59.406Z,-2.14
2023-02-05T03:01:14.336Z,-2.14
2023-02-05T03:03:30.331Z,-2.15
2023-02-05T03:05:46.631Z,-2.17
2023-02-05T03:08:10.448Z,-2.21
2023-02-05T03:10:38.792Z,-2.26
2023-02-05T03:12:51.926Z,-2.35
2023-02-05T03:15:05.765Z,-2.39
2023-02-05T03:17:20.913Z,-2.42
2023-02-05T03:19:33.748Z,-2.45
2023-02-05T03:21:50.398Z,-2.48
2023-02-05T03:24:03.371Z,-2.52
2023-02-05T03:26:31.063Z,-2.54
2023-02-05T03:28:43.826Z,-2.59
2023-02-05T03:31:18.716Z,-2.63
2023-02-05T03:34:02.823Z,-2.69
2023-02-05T03:36:33.349Z,-2.74
2023-02-05T03:39:07.095Z,-2.79
2023-02-05T03:42:10.064Z,-2.81
2023-02-05T03:44:47.072Z,-2.89
2023-02-05T03:47:10.338Z,-2.90
2023-02-05T03:49:35.430Z,-2.88
2023-02-05T03:52:03.835Z,-2.88
2023-02-05T03:54:25.438Z,-2.85
2023-02-05T03:57:03.482Z,-2.82
2023-02-05T03:59:18.739Z,-2.83
2023-02-05T04:01:31.966Z,-2.80
2023-02-05T04:03:44.582Z,-2.76
2023-02-05T04:05:57.180Z,-2.74
2023-02-05T04:08:09.802Z,-2.71
2023-02-05T04:10:22.472Z,-2.69
2023-02-05T04:12:35.105Z,-2.69
2023-02-05T04:14:47.744Z,-2.69
2023-02-05T04:17:00.850Z,-2.71
2023-02-05T04:19:13.429Z,-2.70
2023-02-05T04:21:26.105Z,-2.70
2023-02-05T04:23:38.707Z,-2.67
2023-02-05T04:25:55.405Z,-2.67
2023-02-05T04:28:09.722Z,-2.68
2023-02-05T04:30:22.375Z,-2.64
2023-02-05T04:32:34.939Z,-2.60
2023-02-05T04:34:47.468Z,-2.58
2023-02-05T04:37:00.225Z,-2.57
2023-02-05T04:39:12.908Z,-2.58
2023-02-05T04:41:25.602Z,-2.59
2023-02-05T04:43:38.223Z,-2.61
2023-02-05T04:45:50.835Z,-2.63
2023-02-05T04:48:03.671Z,-2.66
2023-02-05T04:50:16.497Z,-2.70
2023-02-05T04:52:29.311Z,-2.72
2023-02-05T04:54:41.794Z,-2.75
2023-02-05T04:56:54.518Z,-2.81
2023-02-05T04:59:07.122Z,-2.86
2023-02-05T05:01:22.018Z,-2.92
2023-02-05T05:03:34.641Z,-2.97
2023-02-05T05:05:47.212Z,-3.01
2023-02-05T05:07:59.976Z,-3.03
2023-02-05T05:10:12.790Z,-3.00
2023-02-05T05:12:25.292Z,-3.02
2023-02-05T05:14:37.857Z,-3.04
2023-02-05T05:16:50.668Z,-3.04
2023-02-05T05:19:03.421Z,-3.06
2023-02-05T05:21:16.040Z,-3.08
2023-02-05T05:23:28.864Z,-3.08
2023-02-05T05:25:42.630Z,-3.10
2023-02-05T05:27:55.192Z,-3.13
2023-02-05T05:30:08.495Z,-3.15
2023-02-05T05:32:21.148Z,-3.15
2023-02-05T05:34:33.709Z,-3.16
2023-02-05T05:36:47.560Z,-3.16
2023-02-05T05:39:20.099Z,-3.19
2023-02-05T05:41:51.246Z,-3.27
2023-02-05T05:44:03.931Z,-3.33
2023-02-05T05:46:24.830Z,-3.35
2023-02-05T05:48:37.533Z,-3.38
2023-02-05T05:50:50.252Z,-3.41
2023-02-05T05:53:03.048Z,-3.43
2023-02-05T05:55:15.629Z,-3.45
2023-02-05T05:57:28.375Z,-3.45
2023-02-05T05:59:40.980Z,-3.46
2023-02-05T06:01:53.539Z,-3.48
2023-02-05T06:04:06.100Z,-3.51
2023-02-05T06:06:18.656Z,-3.50
2023-02-05T06:08:32.336Z,-3.50
2023-02-05T06:10:45.184Z,-3.51
2023-02-05T06:12:57.745Z,-3.53
2023-02-05T06:15:10.534Z,-3.55
2023-02-05T06:17:23.641Z,-3.56
2023-02-05T06:19:36.207Z,-3.59
2023-02-05T06:21:48.759Z,-3.60
2023-02-05T06:24:01.430Z,-3.62
2023-02-05T06:26:14.086Z,-3.63
2023-02-05T06:28:26.737Z,-3.64
2023-02-05T06:30:39.392Z,-3.66
2023-02-05T06:32:52.026Z,-3.68
2023-02-05T06:35:04.908Z,-3.69
2023-02-05T06:37:17.739Z,-3.72
2023-02-05T06:39:30.533Z,-3.75
2023-02-05T06:41:43.088Z,-3.80
2023-02-05T06:43:55.634Z,-3.82
2023-02-05T06:46:08.326Z,-3.83
2023-02-05T06:48:20.975Z,-3.88
2023-02-05T06:50:33.579Z,-3.90
2023-02-05T06:52:46.139Z,-3.91
2023-02-05T06:54:58.693Z,-3.92
2023-02-05T06:57:12.007Z,-3.92
2023-02-05T06:59:24.771Z,-3.94
2023-02-05T07:01:37.468Z,-3.89
2023-02-05T07:03:54.369Z,-3.84
2023-02-05T07:06:07.445Z,-3.80
2023-02-05T07:08:20.057Z,-3.75
2023-02-05T07:10:32.933Z,-3.69
2023-02-05T07:12:45.453Z,-3.64
2023-02-05T07:14:58.007Z,-3.57
2023-02-05T07:17:10.785Z,-3.48
2023-02-05T07:19:23.345Z,-3.38
2023-02-05T07:21:35.966Z,-3.23
2023-02-05T07:23:48.586Z,-3.09
2023-02-05T07:26:15.454Z,-2.97
2023-02-05T07:28:28.056Z,-2.82
2023-02-05T07:30:40.975Z,-2.68
2023-02-05T07:32:53.680Z,-2.56
2023-02-05T07:35:06.516Z,-2.43
2023-02-05T07:37:21.310Z,-2.30
2023-02-05T07:39:33.968Z,-2.16
2023-02-05T07:41:46.593Z,-2.05
2023-02-05T07:43:59.459Z,-1.94
2023-02-05T07:46:14.621Z,-1.85
2023-02-05T07:48:27.268Z,-1.78
2023-02-05T07:50:44.199Z,-1.71
2023-02-05T07:52:56.756Z,-1.63
2023-02-05T07:55:09.414Z,-1.54
2023-02-05T07:57:21.976Z,-1.43
2023-02-05T07:59:34.514Z,-1.35
2023-02-05T08:01:47.012Z,-1.27
2023-02-05T08:03:59.567Z,-1.18
2023-02-05T08:06:15.386Z,-1.11
2023-02-05T08:08:28.007Z,-1.04
2023-02-05T08:10:40.521Z,-0.96
2023-02-05T08:12:53.100Z,-0.86
2023-02-05T08:15:06.065Z,-0.74
2023-02-05T08:17:18.664Z,-0.66
2023-02-05T08:19:31.221Z,-0.61
2023-02-05T08:21:43.940Z,-0.58
2023-02-05T08:23:58.424Z,-0.50
2023-02-05T08:26:11.972Z,-0.45
2023-02-05T08:28:26.957Z,-0.39
2023-02-05T08:30:40.035Z,-0.34
2023-02-05T08:32:52.637Z,-0.25
2023-02-05T08:35:05.938Z,-0.18
2023-02-05T08:37:19.435Z,-0.13
2023-02-05T08:39:31.948Z,-0.11
2023-02-05T08:41:44.543Z,-0.03
2023-02-05T08:43:57.163Z,0.10
2023-02-05T08:46:11.362Z,0.26
2023-02-05T08:48:24.048Z,0.39
2023-02-05T08:50:36.565Z,0.51
2023-02-05T08:52:49.764Z,0.65
2023-02-05T08:55:02.323Z,0.77
2023-02-05T08:57:16.497Z,0.85
2023-02-05T08:59:29.087Z,0.97
2023-02-05T09:01:42.997Z,1.04
2023-02-05T09:03:55.670Z,1.11
2023-02-05T09:06:11.082Z,1.09
2023-02-05T09:08:25.041Z,1.19
2023-02-05T09:10:37.868Z,1.40
2023-02-05T09:12:50.390Z,1.54
2023-02-05T09:15:03.242Z,1.70
2023-02-05T09:17:16.092Z,1.93
2023-02-05T09:19:30.374Z,2.05
2023-02-05T09:21:42.958Z,2.16
2023-02-05T09:23:55.596Z,2.20
2023-02-05T09:26:09.289Z,2.17
2023-02-05T09:28:21.825Z,2.23
2023-02-05T09:30:35.969Z,2.37
2023-02-05T09:32:48.562Z,2.49
2023-02-05T09:35:01.168Z,2.48
2023-02-05T09:37:13.830Z,2.58
2023-02-05T09:40:11.929Z,2.73
2023-02-05T09:42:18.708Z,2.72
2023-02-05T09:44:52.106Z,2.48
2023-02-05T09:47:13.697Z,2.72
2023-02-05T09:49:40.480Z,2.99
2023-02-05T09:51:59.744Z,3.23
2023-02-05T09:54:18.655Z,3.39
2023-02-05T09:56:33.544Z,3.75
2023-02-05T09:58:53.301Z,3.86
2023-02-05T10:01:19.208Z,3.51
2023-02-05T10:03:42.384Z,3.42
2023-02-05T10:06:35.236Z,3.41
2023-02-05T10:09:35.904Z,3.09
2023-02-05T10:11:57.837Z,2.71
2023-02-05T10:14:41.278Z,2.49
2023-02-05T10:17:18.189Z,2.22
2023-02-05T10:20:05.492Z,1.97
2023-02-05T10:22:43.592Z,1.60
2023-02-05T10:25:20.808Z,1.52
2023-02-05T10:27:46.203Z,1.56
2023-02-05T10:30:06.551Z,1.61
2023-02-05T10:32:24.740Z,1.43
2023-02-05T10:35:05.602Z,1.29
2023-02-05T10:37:25.420Z,1.20
2023-02-05T10:39:38.007Z,1.15
2023-02-05T10:41:56.139Z,1.04
2023-02-05T10:44:20.594Z,0.92
2023-02-05T10:46:36.554Z,0.85
2023-02-05T10:48:51.550Z,0.76
2023-02-05T10:51:13.878Z,0.71
2023-02-05T10:53:28.050Z,0.76
2023-02-05T10:55:40.602Z,0.80
2023-02-05T10:57:54.026Z,0.79
2023-02-05T11:00:15.923Z,0.75
2023-02-05T11:02:34.190Z,0.71
2023-02-05T11:05:00.177Z,0.72
2023-02-05T11:07:19.636Z,0.70
2023-02-05T11:09:34.258Z,0.72
2023-02-05T11:11:51.481Z,0.78
2023-02-05T11:14:06.794Z,0.72
2023-02-05T11:16:19.917Z,0.69
2023-02-05T11:18:39.065Z,0.69
2023-02-05T11:20:59.287Z,0.73
2023-02-05T11:23:21.298Z,0.86
2023-02-05T11:25:34.187Z,1.04
2023-02-05T11:27:55.075Z,1.27
2023-02-05T11:30:50.030Z,1.46
2023-02-05T11:33:22.163Z,1.72
2023-02-05T11:35:34.926Z,2.02
2023-02-05T11:37:59.543Z,2.23
2023-02-05T11:40:22.504Z,2.35
2023-02-05T11:42:35.096Z,2.45
2023-02-05T11:44:52.415Z,2.49
2023-02-05T11:47:04.979Z,2.63
2023-02-05T11:49:22.577Z,2.73
2023-02-05T11:51:42.976Z,2.75
2023-02-05T11:53:59.007Z,2.76
2023-02-05T11:56:21.507Z,2.69
2023-02-05T11:58:37.399Z,2.59
2023-02-05T12:00:57.702Z,2.53
2023-02-05T12:03:18.816Z,2.46
2023-02-05T12:05:37.279Z,2.44
2023-02-05T12:08:09.067Z,2.43
2023-02-05T12:10:38.093Z,2.46
2023-02-05T12:13:10.180Z,2.43
2023-02-05T12:15:35.005Z,2.34
2023-02-05T12:18:06.024Z,2.37
2023-02-05T12:20:29.216Z,2.39
2023-02-05T12:23:01.229Z,2.31
2023-02-05T12:25:26.491Z,2.18
2023-02-05T12:27:55.567Z,2.17
2023-02-05T12:30:25.993Z,2.19
2023-02-05T12:33:00.600Z,2.24
2023-02-05T12:35:29.942Z,2.24
2023-02-05T12:38:21.164Z,2.23
2023-02-05T12:41:36.765Z,2.28
2023-02-05T12:43:50.604Z,2.22
2023-02-05T12:46:48.230Z,2.34
2023-02-05T12:49:16.008Z,2.44
2023-02-05T12:51:56.003Z,2.49
2023-02-05T12:54:29.228Z,2.55
2023-02-05T12:56:58.016Z,2.54
2023-02-05T12:59:19.580Z,2.56
2023-02-05T13:01:42.848Z,2.54
2023-02-05T13:04:01.402Z,2.51
2023-02-05T13:06:35.072Z,2.49
2023-02-05T13:08:55.876Z,2.40
2023-02-05T13:11:28.815Z,2.30
2023-02-05T13:13:58.309Z,2.15
2023-02-05T13:16:16.160Z,2.05
2023-02-05T13:18:34.242Z,1.98
2023-02-05T13:21:11.982Z,1.98
2023-02-05T13:23:43.805Z,1.99
2023-02-05T13:26:16.140Z,2.03
2023-02-05T13:28:43.382Z,2.11
2023-02-05T13:30:58.232Z,2.14
2023-02-05T13:33:10.879Z,2.05
2023-02-05T13:35:25.636Z,1.99
2023-02-05T13:37:55.940Z,1.93
2023-02-05T13:40:21.323Z,1.86
2023-02-05T13:43:16.964Z,1.77
2023-02-05T13:45:57.545Z,1.74
2023-02-05T13:48:38.765Z,1.75
2023-02-05T13:51:13.368Z,1.71
2023-02-05T13:53:45.245Z,1.68
2023-02-05T13:56:30.652Z,1.59
2023-02-05T13:58:57.700Z,1.48
2023-02-05T14:01:24.172Z,1.52
2023-02-05T14:03:57.119Z,1.57
2023-02-05T14:06:17.243Z,1.64
2023-02-05T14:08:37.544Z,1.72
2023-02-05T14:11:04.020Z,1.73
2023-02-05T14:13:25.935Z,1.73
2023-02-05T14:15:42.337Z,1.77
2023-02-05T14:17:55.916Z,1.82
2023-02-05T14:20:27.130Z,1.77
2023-02-05T14:22:44.461Z,1.67
2023-02-05T14:25:01.035Z,1.65
2023-02-05T14:27:27.936Z,1.61
2023-02-05T14:29:43.592Z,1.49
2023-02-05T14:31:56.543Z,1.53
2023-02-05T14:34:34.533Z,1.55
2023-02-05T14:36:47.288Z,1.54
2023-02-05T14:39:22.133Z,1.52
2023-02-05T14:41:40.781Z,1.33
2023-02-05T14:44:17.070Z,1.30
2023-02-05T14:46:36.624Z,1.28
2023-02-05T14:48:49.434Z,1.24
2023-02-05T14:51:17.133Z,1.27
2023-02-05T14:53:31.404Z,1.29
2023-02-05T14:55:44.397Z,1.33
2023-02-05T14:58:03.303Z,1.34
2023-02-05T15:00:42.466Z,1.30
2023-02-05T15:03:19.731Z,1.22
2023-02-05T15:05:35.996Z,1.17
2023-02-05T15:07:52.553Z,1.17
2023-02-05T15:10:16.264Z,1.16
2023-02-05T15:12:53.973Z,1.12
2023-02-05T15:15:33.830Z,1.07
2023-02-05T15:17:50.956Z,1.04
2023-02-05T15:20:18.531Z,0.93
2023-02-05T15:22:36.828Z,0.82
2023-02-05T15:24:53.701Z,0.83
2023-02-05T15:27:15.791Z,0.87
2023-02-05T15:29:41.571Z,0.89
2023-02-05T15:31:57.908Z,0.87
2023-02-05T15:34:28.732Z,0.82
2023-02-05T15:36:52.339Z,0.69
2023-02-05T15:39:35.914Z,0.56
2023-02-05T15:41:48.764Z,0.44
2023-02-05T15:44:03.846Z,0.42
2023-02-05T15:46:17.519Z,0.42
2023-02-05T15:48:32.793Z,0.45
2023-02-05T15:50:56.168Z,0.44
2023-02-05T15:53:19.460Z,0.40
2023-02-05T15:55:33.481Z,0.39
2023-02-05T15:57:47.942Z,0.40
2023-02-05T16:00:03.015Z,0.39
2023-02-05T16:02:20.443Z,0.38
2023-02-05T16:04:37.211Z,0.38
2023-02-05T16:06:49.724Z,0.36
2023-02-05T16:09:02.232Z,0.36
2023-02-05T16:11:33.111Z,0.33
2023-02-05T16:13:45.628Z,0.25
2023-02-05T16:16:18.094Z,0.21
2023-02-05T16:18:40.604Z,0.14
2023-02-05T16:21:02.120Z,0.10
2023-02-05T16:23:28.449Z,0.05
2023-02-05T16:25:49.158Z,-0.02
2023-02-05T16:28:07.978Z,-0.08
2023-02-05T16:30:31.135Z,-0.13
2023-02-05T16:32:44.454Z,-0.20
2023-02-05T16:34:59.999Z,-0.26
2023-02-05T16:37:16.878Z,-0.34
2023-02-05T16:39:37.580Z,-0.41
2023-02-05T16:42:06.004Z,-0.47
2023-02-05T16:44:31.885Z,-0.54
2023-02-05T16:46:44.608Z,-0.60
2023-02-05T16:49:01.374Z,-0.63
2023-02-05T16:51:33.149Z,-0.63
2023-02-05T16:53:50.124Z,-0.70
2023-02-05T16:56:23.519Z,-0.75
2023-02-05T16:58:52.907Z,-0.83
2023-02-05T17:01:05.520Z,-0.88
2023-02-05T17:03:19.184Z,-0.92
2023-02-05T17:05:34.363Z,-0.95
2023-02-05T17:07:57.358Z,-1.00
2023-02-05T17:10:20.938Z,-1.06
2023-02-05T17:12:33.472Z,-1.12
2023-02-05T17:14:57.889Z,-1.15
2023-02-05T17:17:18.789Z,-1.19
2023-02-05T17:19:33.732Z,-1.24
2023-02-05T17:21:46.606Z,-1.27
2023-02-05T17:24:02.661Z,-1.30
2023-02-05T17:26:15.695Z,-1.34
2023-02-05T17:28:29.967Z,-1.37
2023-02-05T17:30:44.797Z,-1.41
2023-02-05T17:32:57.578Z,-1.47
2023-02-05T17:35:14.606Z,-1.54
2023-02-05T17:37:27.138Z,-1.59
2023-02-05T17:39:40.913Z,-1.67
2023-02-05T17:42:07.805Z,-1.73
2023-02-05T17:44:21.428Z,-1.77
2023-02-05T17:46:33.965Z,-1.79
2023-02-05T17:48:46.722Z,-1.83
2023-02-05T17:50:59.246Z,-1.88
2023-02-05T17:53:13.916Z,-1.90
2023-02-05T17:55:26.924Z,-1.91
2023-02-05T17:57:40.322Z,-1.97
2023-02-05T17:59:53.759Z,-2.05
2023-02-05T18:02:07.089Z,-2.17
2023-02-05T18:04:20.041Z,-2.27
2023-02-05T18:06:33.864Z,-2.28
2023-02-05T18:08:46.804Z,-2.31
2023-02-05T18:10:59.408Z,-2.37
2023-02-05T18:13:11.924Z,-2.44
2023-02-05T18:15:25.824Z,-2.51
2023-02-05T18:17:39.182Z,-2.59
2023-02-05T18:19:53.056Z,-2.56
2023-02-05T18:22:07.656Z,-2.54
2023-02-05T18:24:20.343Z,-2.54
2023-02-05T18:26:33.156Z,-2.53
2023-02-05T18:28:46.703Z,-2.52
2023-02-05T18:31:10.199Z,-2.51
2023-02-05T18:33:22.919Z,-2.48
2023-02-05T18:35:37.895Z,-2.46
2023-02-05T18:37:50.515Z,-2.44
2023-02-05T18:40:04.401Z,-2.43
2023-02-05T18:42:17.178Z,-2.43
2023-02-05T18:44:29.784Z,-2.42
2023-02-05T18:46:42.819Z,-2.40
2023-02-05T18:48:58.127Z,-2.38
2023-02-05T18:51:13.368Z,-2.39
2023-02-05T18:53:28.276Z,-2.45
2023-02-05T18:55:41.473Z,-2.54
2023-02-05T18:57:54.268Z,-2.60
2023-02-05T19:00:07.708Z,-2.67
2023-02-05T19:02:20.663Z,-2.72
2023-02-05T19:04:33.396Z,-2.72
2023-02-05T19:06:52.339Z,-2.68
2023-02-05T19:09:04.920Z,-2.65
2023-02-05T19:11:20.948Z,-2.60
2023-02-05T19:13:34.184Z,-2.57
2023-02-05T19:15:48.164Z,-2.55
2023-02-05T19:18:00.795Z,-2.56
2023-02-05T19:20:13.620Z,-2.59
2023-02-05T19:22:26.368Z,-2.61
2023-02-05T19:24:40.606Z,-2.60
2023-02-05T19:26:56.426Z,-2.58
2023-02-05T19:29:13.599Z,-2.60
2023-02-05T19:31:28.830Z,-2.60
2023-02-05T19:33:42.110Z,-2.64
2023-02-05T19:35:57.108Z,-2.71
2023-02-05T19:38:09.653Z,-2.69
2023-02-05T19:40:22.261Z,-2.69
2023-02-05T19:42:35.183Z,-2.67
2023-02-05T19:44:47.715Z,-2.65
2023-02-05T19:47:00.473Z,-2.66
2023-02-05T19:49:16.352Z,-2.65
2023-02-05T19:51:28.940Z,-2.63
2023-02-05T19:53:44.217Z,-2.62
2023-02-05T19:56:08.541Z,-2.65
2023-02-05T19:58:21.047Z,-2.69
2023-02-05T20:00:33.799Z,-2.67
2023-02-05T20:02:46.709Z,-2.67
2023-02-05T20:04:59.414Z,-2.62
2023-02-05T20:07:12.372Z,-2.60
2023-02-05T20:09:27.114Z,-2.55
2023-02-05T20:11:41.803Z,-2.51
2023-02-05T20:13:54.403Z,-2.47
2023-02-05T20:16:16.521Z,-2.45
2023-02-05T20:18:29.497Z,-2.44
2023-02-05T20:20:42.288Z,-2.42
2023-02-05T20:22:54.832Z,-2.43
2023-02-05T20:25:07.582Z,-2.46
2023-02-05T20:27:21.503Z,-2.49
2023-02-05T20:29:52.425Z,-2.51
2023-02-05T20:32:05.875Z,-2.54
2023-02-05T20:34:22.324Z,-2.53
2023-02-05T20:36:35.228Z,-2.57
2023-02-05T20:38:47.934Z,-2.67
2023-02-05T20:41:09.799Z,-2.74
2023-02-05T20:43:22.662Z,-2.76
2023-02-05T20:45:35.222Z,-2.74
2023-02-05T20:47:48.000Z,-2.71
2023-02-05T20:50:00.633Z,-2.68
2023-02-05T20:52:13.414Z,-2.66
2023-02-05T20:54:26.098Z,-2.66
2023-02-05T20:56:38.812Z,-2.65
2023-02-05T20:58:51.674Z,-2.65
2023-02-05T21:01:10.053Z,-2.66
2023-02-05T21:03:22.948Z,-2.68
2023-02-05T21:05:35.937Z,-2.68
2023-02-05T21:07:48.514Z,-2.68
2023-02-05T21:10:02.178Z,-2.68
2023-02-05T21:12:15.548Z,-2.69
2023-02-05T21:14:28.437Z,-2.68
2023-02-05T21:16:41.480Z,-2.66
2023-02-05T21:18:54.642Z,-2.66
2023-02-05T21:21:08.342Z,-2.69
2023-02-05T21:23:21.724Z,-2.70
2023-02-05T21:25:35.973Z,-2.69
2023-02-05T21:27:50.477Z,-2.70
2023-02-05T21:30:03.718Z,-2.73
2023-02-05T21:32:16.337Z,-2.80
2023-02-05T21:34:29.542Z,-2.86
2023-02-05T21:36:42.120Z,-2.86
2023-02-05T21:38:55.015Z,-2.90
2023-02-05T21:41:08.702Z,-2.93
2023-02-05T21:43:21.390Z,-2.92
2023-02-05T21:45:36.615Z,-2.88
2023-02-05T21:47:49.507Z,-2.81
2023-02-05T21:50:02.182Z,-2.74
2023-02-05T21:52:14.888Z,-2.70
2023-02-05T21:54:27.553Z,-2.66
2023-02-05T21:56:42.631Z,-2.63
2023-02-05T21:58:55.876Z,-2.63
2023-02-05T22:01:14.189Z,-2.65
2023-02-05T22:03:26.835Z,-2.64
2023-02-05T22:05:39.407Z,-2.62
2023-02-05T22:07:52.020Z,-2.68
2023-02-05T22:10:05.026Z,-2.73
2023-02-05T22:12:17.985Z,-2.72
2023-02-05T22:14:30.845Z,-2.70
2023-02-05T22:16:43.585Z,-2.74
2023-02-05T22:18:57.437Z,-2.74
2023-02-05T22:21:13.666Z,-2.76
2023-02-05T22:23:26.236Z,-2.84
2023-02-05T22:25:46.050Z,-2.90
2023-02-05T22:27:58.821Z,-2.97
2023-02-05T22:30:12.105Z,-3.02
2023-02-05T22:32:24.876Z,-3.04
2023-02-05T22:34:37.588Z,-3.06
2023-02-05T22:36:50.130Z,-3.11
2023-02-05T22:39:04.388Z,-3.14
2023-02-05T22:41:25.682Z,-3.15
2023-02-05T22:43:38.649Z,-3.18
2023-02-05T22:45:51.234Z,-3.20
2023-02-05T22:48:03.887Z,-3.22
2023-02-05T22:50:16.655Z,-3.27
2023-02-05T22:52:29.199Z,-3.30
2023-02-05T22:54:41.832Z,-3.45
2023-02-05T22:56:54.473Z,-3.59
2023-02-05T22:59:07.919Z,-3.61
2023-02-05T23:01:24.745Z,-3.58
2023-02-05T23:03:37.946Z,-3.58
2023-02-05T23:05:50.940Z,-3.59
2023-02-05T23:08:03.542Z,-3.60
2023-02-05T23:10:20.252Z,-3.59
2023-02-05T23:12:32.850Z,-3.58
2023-02-05T23:14:45.370Z,-3.58
2023-02-05T23:16:59.786Z,-3.58
2023-02-05T23:19:18.595Z,-3.58
2023-02-05T23:21:33.432Z,-3.58
2023-02-05T23:23:46.590Z,-3.57
2023-02-05T23:26:05.674Z,-3.57
2023-02-05T23:28:18.551Z,-3.63
2023-02-05T23:30:31.184Z,-3.69
2023-02-05T23:32:43.775Z,-3.67
2023-02-05T23:34:56.414Z,-3.64
2023-02-05T23:37:09.017Z,-3.65
2023-02-05T23:39:21.648Z,-3.63
2023-02-05T23:41:37.634Z,-3.65
2023-02-05T23:43:50.234Z,-3.67
2023-02-05T23:46:03.822Z,-3.68
2023-02-05T23:48:17.236Z,-3.68
2023-02-05T23:50:29.812Z,-3.66
2023-02-05T23:52:42.349Z,-3.63
2023-02-05T23:54:55.113Z,-3.56
2023-02-05T23:57:07.691Z,-3.52
2023-02-05T23:59:20.307Z,-3.48
